Time;durP1;ratioP1;P1;durP2;ratioP2;P2;SDS_P1;SDS_P2;PMS_P1;PMS_P2;Temp;Humidity;BMP_temperature;BMP_pressure;BME280_temperature;BME280_humidity;BME280_pressure;Samples;Min_cycle;Max_cycle;Signal;HPM_P1;HPM_P2
2023/09/05 00:03:45;;;;;;;9.52;6.13;;;;;;;;;;10336952;28;20056;-64
2023/09/05 00:08:44;;;;;;;5.25;4.80;;;;;;;;;;10336549;28;20071;-65
2023/09/05 00:13:43;;;;;;;6.28;5.03;;;;;;;;;;10334105;28;20079;-63
2023/09/05 00:18:41;;;;;;;8.88;4.55;;;;;;;;;;10330519;28;20076;-64
2023/09/05 00:23:41;;;;;;;7.15;4.53;;;;;;;;;;10332318;28;20091;-64
2023/09/05 00:28:44;;;;;;;4.57;4.18;;;;;;;;;;10331962;28;20079;-65
2023/09/05 00:33:44;;;;;;;6.45;5.07;;;;;;;;;;10334037;28;20079;-63
2023/09/05 00:38:42;;;;;;;5.55;5.05;;;;;;;;;;10332784;28;20078;-63
2023/09/05 00:43:43;;;;;;;6.22;4.15;;;;;;;;;;10333955;28;20063;-63
2023/09/05 00:48:42;;;;;;;5.28;4.78;;;;;;;;;;10334575;28;20075;-63
2023/09/05 00:53:40;;;;;;;5.93;4.45;;;;;;;;;;10332353;28;20109;-63
2023/09/05 00:58:38;;;;;;;8.45;4.60;;;;;;;;;;10331417;28;20737;-63
2023/09/05 01:03:40;;;;;;;4.57;4.15;;;;;;;;;;10333081;28;20113;-63
2023/09/05 01:08:44;;;;;;;6.07;4.57;;;;;;;;;;10333089;28;20103;-63
2023/09/05 01:13:42;;;;;;;5.30;4.80;;;;;;;;;;10333029;28;20126;-63
2023/09/05 01:18:42;;;;;;;5.90;4.35;;;;;;;;;;10333075;28;20493;-64
2023/09/05 01:23:44;;;;;;;8.32;5.13;;;;;;;;;;10330728;28;20506;-64
2023/09/05 01:28:45;;;;;;;8.00;5.28;;;;;;;;;;10332089;28;20074;-64
2023/09/05 01:33:44;;;;;;;7.43;4.82;;;;;;;;;;10319801;28;20075;-64
2023/09/05 01:38:42;;;;;;;6.70;4.80;;;;;;;;;;10312037;28;20552;-64
2023/09/05 01:43:42;;;;;;;5.78;5.28;;;;;;;;;;10313415;28;20517;-64
2023/09/05 01:48:45;;;;;;;5.05;4.63;;;;;;;;;;10330123;28;20068;-64
2023/09/05 01:53:43;;;;;;;5.30;4.70;;;;;;;;;;10328376;28;20068;-63
2023/09/05 01:58:45;;;;;;;11.07;5.10;;;;;;;;;;10330419;28;20182;-64
2023/09/05 02:03:43;;;;;;;5.07;4.57;;;;;;;;;;10305256;28;20082;-64
2023/09/05 02:08:43;;;;;;;5.25;4.75;;;;;;;;;;10300843;28;20331;-63
2023/09/05 02:13:43;;;;;;;5.70;5.00;;;;;;;;;;10324863;28;20071;-63
2023/09/05 02:18:41;;;;;;;14.85;5.78;;;;;;;;;;10326175;28;20068;-62
2023/09/05 02:23:40;;;;;;;4.55;4.15;;;;;;;;;;10310197;28;20535;-62
2023/09/05 02:28:39;;;;;;;6.10;4.43;;;;;;;;;;10328020;28;20413;-63
2023/09/05 02:33:38;;;;;;;4.35;3.95;;;;;;;;;;10327948;28;20072;-63
2023/09/05 02:38:37;;;;;;;5.53;4.65;;;;;;;;;;10320677;28;20543;-63
2023/09/05 02:43:35;;;;;;;6.10;4.78;;;;;;;;;;10326299;28;20102;-63
2023/09/05 02:48:36;;;;;;;6.63;4.32;;;;;;;;;;10325087;28;20063;-63
2023/09/05 02:53:34;;;;;;;5.78;4.93;;;;;;;;;;10291282;28;20091;-63
2023/09/05 02:58:33;;;;;;;5.53;5.03;;;;;;;;;;10323538;28;20086;-62
2023/09/05 03:03:31;;;;;;;6.93;5.05;;;;;;;;;;10326083;28;20060;-64
2023/09/05 03:08:31;;;;;;;7.00;5.07;;;;;;;;;;10324212;28;20080;-64
2023/09/05 03:13:30;;;;;;;5.95;4.68;;;;;;;;;;10294784;28;20625;-65
2023/09/05 03:18:28;;;;;;;7.45;4.70;;;;;;;;;;10325301;28;20072;-64
2023/09/05 03:23:27;;;;;;;14.15;5.63;;;;;;;;;;10313518;28;20458;-65
2023/09/05 03:28:38;;;;;;;5.32;4.80;;;;;;;;;;10321080;28;20107;-64
2023/09/05 03:33:39;;;;;;;7.13;5.18;;;;;;;;;;10298226;28;20079;-64
2023/09/05 03:38:38;;;;;;;7.28;4.53;;;;;;;;;;10334084;28;20064;-64
2023/09/05 03:43:38;;;;;;;5.82;4.53;;;;;;;;;;10333259;28;20065;-64
2023/09/05 03:48:36;;;;;;;5.45;4.40;;;;;;;;;;10330313;28;20524;-64
2023/09/05 03:53:35;;;;;;;5.50;4.95;;;;;;;;;;10333977;28;20066;-64
2023/09/05 03:58:38;;;;;;;5.47;4.68;;;;;;;;;;10297462;28;20598;-64
2023/09/05 04:03:36;;;;;;;5.90;4.90;;;;;;;;;;10308204;28;20071;-63
2023/09/05 04:08:35;;;;;;;7.63;4.97;;;;;;;;;;10304891;28;20079;-63
2023/09/05 04:13:33;;;;;;;9.73;4.78;;;;;;;;;;10326604;28;20080;-65
2023/09/05 04:18:33;;;;;;;7.90;4.88;;;;;;;;;;10325635;28;20476;-63
2023/09/05 04:23:32;;;;;;;7.97;5.35;;;;;;;;;;10306187;28;20072;-63
2023/09/05 04:28:30;;;;;;;11.48;5.30;;;;;;;;;;10334045;28;20064;-64
2023/09/05 04:33:31;;;;;;;7.22;4.82;;;;;;;;;;10309302;28;20099;-65
2023/09/05 04:38:31;;;;;;;7.85;5.18;;;;;;;;;;10325780;28;20087;-64
2023/09/05 04:43:29;;;;;;;7.65;5.18;;;;;;;;;;10324990;28;20071;-63
2023/09/05 04:48:28;;;;;;;6.88;5.47;;;;;;;;;;10322903;28;20090;-66
2023/09/05 04:53:26;;;;;;;8.20;5.32;;;;;;;;;;10325462;28;20060;-65
2023/09/05 04:58:26;;;;;;;6.13;5.53;;;;;;;;;;10331899;28;20071;-65
2023/09/05 05:03:25;;;;;;;20.08;6.88;;;;;;;;;;10328295;28;20494;-65
2023/09/05 05:08:23;;;;;;;7.80;4.65;;;;;;;;;;10325193;28;20076;-65
2023/09/05 05:13:22;;;;;;;8.38;5.25;;;;;;;;;;10328598;28;20425;-65
2023/09/05 05:18:21;;;;;;;6.93;5.32;;;;;;;;;;10302815;28;20084;-64
2023/09/05 05:23:20;;;;;;;14.07;4.80;;;;;;;;;;10320103;28;20075;-66
2023/09/05 05:28:18;;;;;;;8.90;4.30;;;;;;;;;;10322759;28;20488;-66
2023/09/05 05:33:16;;;;;;;6.20;4.35;;;;;;;;;;10317411;28;20059;-65
2023/09/05 05:38:16;;;;;;;7.20;4.65;;;;;;;;;;10320275;28;20520;-65
2023/09/05 05:43:14;;;;;;;7.10;5.03;;;;;;;;;;10313691;28;20515;-65
2023/09/05 05:48:12;;;;;;;9.20;5.43;;;;;;;;;;10320469;28;20068;-66
2023/09/05 05:53:10;;;;;;;10.20;4.72;;;;;;;;;;10325745;28;20075;-63
2023/09/05 05:58:10;;;;;;;8.45;4.75;;;;;;;;;;10324814;28;20079;-64
2023/09/05 06:03:11;;;;;;;4.95;4.15;;;;;;;;;;10331385;28;20461;-65
2023/09/05 06:08:09;;;;;;;12.52;4.05;;;;;;;;;;10324698;28;20072;-64
2023/09/05 06:13:07;;;;;;;21.35;4.57;;;;;;;;;;10325720;28;20508;-64
2023/09/05 06:18:08;;;;;;;5.95;4.30;;;;;;;;;;10325982;28;20086;-64
2023/09/05 06:23:06;;;;;;;5.05;4.38;;;;;;;;;;10324511;28;20079;-64
2023/09/05 06:28:05;;;;;;;9.63;4.85;;;;;;;;;;10309749;28;20076;-65
2023/09/05 06:33:03;;;;;;;9.85;4.40;;;;;;;;;;10328979;28;20064;-64
2023/09/05 06:38:05;;;;;;;5.38;4.47;;;;;;;;;;10327529;28;20079;-64
2023/09/05 06:43:04;;;;;;;4.80;3.80;;;;;;;;;;10331325;28;20072;-64
2023/09/05 06:48:02;;;;;;;5.32;4.20;;;;;;;;;;10330729;28;20072;-64
2023/09/05 06:53:01;;;;;;;4.72;3.72;;;;;;;;;;10327419;28;20087;-64
2023/09/05 06:58:00;;;;;;;6.15;4.40;;;;;;;;;;10331059;28;20090;-64
2023/09/05 07:02:58;;;;;;;5.63;4.55;;;;;;;;;;10331260;28;20074;-64
2023/09/05 07:07:57;;;;;;;19.23;5.25;;;;;;;;;;10328354;28;20072;-63
2023/09/05 07:12:55;;;;;;;5.97;4.10;;;;;;;;;;10330715;28;20068;-64
2023/09/05 07:17:55;;;;;;;8.00;3.95;;;;;;;;;;10330658;28;20083;-64
2023/09/05 07:22:53;;;;;;;8.38;4.80;;;;;;;;;;10328741;28;20067;-64
2023/09/05 07:27:51;;;;;;;9.30;4.38;;;;;;;;;;10329294;28;20068;-65
2023/09/05 07:32:50;;;;;;;11.35;3.85;;;;;;;;;;10328312;28;20084;-64
2023/09/05 07:37:49;;;;;;;11.30;4.10;;;;;;;;;;10328174;28;20087;-64
2023/09/05 07:42:47;;;;;;;4.43;3.83;;;;;;;;;;10330306;28;20075;-66
2023/09/05 07:47:46;;;;;;;9.70;4.45;;;;;;;;;;10330365;28;20064;-65
2023/09/05 07:52:44;;;;;;;9.05;4.50;;;;;;;;;;10329347;28;20072;-65
2023/09/05 07:57:44;;;;;;;6.03;4.55;;;;;;;;;;10328177;28;20083;-64
2023/09/05 08:02:42;;;;;;;8.77;7.10;;;;;;;;;;10329444;28;20487;-65
2023/09/05 08:07:41;;;;;;;8.82;4.10;;;;;;;;;;10329332;28;20090;-66
2023/09/05 08:12:39;;;;;;;8.30;3.60;;;;;;;;;;10329304;28;20064;-65
2023/09/05 08:17:39;;;;;;;8.45;4.25;;;;;;;;;;10330544;28;20146;-65
2023/09/05 08:22:37;;;;;;;4.60;3.92;;;;;;;;;;10334346;28;20072;-66
2023/09/05 08:27:35;;;;;;;9.40;4.32;;;;;;;;;;10333537;28;20070;-65
2023/09/05 08:32:34;;;;;;;4.53;4.13;;;;;;;;;;10337708;28;20068;-65
2023/09/05 08:37:34;;;;;;;7.68;4.22;;;;;;;;;;10333687;28;20124;-65
2023/09/05 08:42:33;;;;;;;10.20;3.95;;;;;;;;;;10335342;28;20114;-65
2023/09/05 08:47:31;;;;;;;7.88;4.88;;;;;;;;;;10336242;28;20076;-65
2023/09/05 08:52:32;;;;;;;6.95;3.65;;;;;;;;;;10333692;28;20076;-65
2023/09/05 08:57:32;;;;;;;6.60;4.45;;;;;;;;;;10336177;28;20072;-66
2023/09/05 09:02:32;;;;;;;5.85;4.07;;;;;;;;;;10336554;28;20075;-64
2023/09/05 09:07:30;;;;;;;10.55;3.45;;;;;;;;;;10334130;28;20083;-66
2023/09/05 09:12:30;;;;;;;5.03;3.60;;;;;;;;;;10335994;28;20074;-65
2023/09/05 09:17:30;;;;;;;4.70;3.40;;;;;;;;;;10333689;28;20087;-65
2023/09/05 09:22:29;;;;;;;9.25;3.55;;;;;;;;;;10333465;28;20072;-65
2023/09/05 09:27:27;;;;;;;7.03;3.60;;;;;;;;;;10333919;28;20064;-64
2023/09/05 09:32:26;;;;;;;6.18;3.45;;;;;;;;;;10332594;28;20071;-66
2023/09/05 09:37:26;;;;;;;12.65;4.47;;;;;;;;;;10332494;28;20519;-66
2023/09/05 09:42:24;;;;;;;8.43;3.70;;;;;;;;;;10329287;28;20072;-66
2023/09/05 09:47:24;;;;;;;5.57;3.65;;;;;;;;;;10334033;28;20056;-66
2023/09/05 09:52:22;;;;;;;6.53;3.67;;;;;;;;;;10331345;28;20067;-66
2023/09/05 09:57:27;;;;;;;9.82;3.53;;;;;;;;;;10332779;28;20072;-67
2023/09/05 10:02:43;;;;;;;5.75;3.47;;;;;;;;;;10332429;28;20075;-66
2023/09/05 10:07:43;;;;;;;5.38;3.25;;;;;;;;;;10332101;28;20177;-66
2023/09/05 10:12:43;;;;;;;8.80;3.13;;;;;;;;;;10331450;28;20060;-66
2023/09/05 10:17:42;;;;;;;14.48;4.10;;;;;;;;;;10331977;28;20476;-66
2023/09/05 10:22:43;;;;;;;8.60;3.05;;;;;;;;;;10321386;28;20094;-66
2023/09/05 10:27:43;;;;;;;11.07;4.35;;;;;;;;;;10331468;28;20080;-66
2023/09/05 10:32:42;;;;;;;12.93;3.30;;;;;;;;;;10331104;28;20073;-66
2023/09/05 10:37:44;;;;;;;6.15;3.10;;;;;;;;;;10332688;28;20064;-66
2023/09/05 10:42:44;;;;;;;6.00;3.35;;;;;;;;;;10331128;28;20078;-66
2023/09/05 10:47:42;;;;;;;7.57;3.88;;;;;;;;;;10332688;28;20079;-65
2023/09/05 10:52:41;;;;;;;10.00;3.55;;;;;;;;;;10311943;28;20512;-66
2023/09/05 10:57:40;;;;;;;8.98;3.67;;;;;;;;;;10331323;28;20075;-66
2023/09/05 11:02:40;;;;;;;8.45;3.55;;;;;;;;;;10329685;28;20085;-66
2023/09/05 11:07:42;;;;;;;11.13;3.60;;;;;;;;;;10331329;28;20080;-67
2023/09/05 11:12:42;;;;;;;9.48;4.93;;;;;;;;;;10298620;28;20076;-67
2023/09/05 11:17:42;;;;;;;7.75;4.15;;;;;;;;;;10331757;28;20076;-66
2023/09/05 11:22:40;;;;;;;5.45;3.58;;;;;;;;;;10330785;28;20503;-66
2023/09/05 11:27:40;;;;;;;9.48;4.43;;;;;;;;;;10330390;28;20071;-65
2023/09/05 11:32:39;;;;;;;5.97;3.22;;;;;;;;;;10312416;28;20488;-66
2023/09/05 11:37:39;;;;;;;5.65;4.45;;;;;;;;;;10330494;28;20072;-66
2023/09/05 11:42:38;;;;;;;7.90;3.53;;;;;;;;;;10330102;28;20075;-67
2023/09/05 11:47:36;;;;;;;7.97;3.75;;;;;;;;;;10330357;28;20515;-66
2023/09/05 11:52:40;;;;;;;8.52;3.78;;;;;;;;;;10327389;28;20135;-66
2023/09/05 11:57:38;;;;;;;;;;;;;;;;;;10338272;28;20106;-66
2023/09/05 12:02:38;;;;;;;12.25;4.90;;;;;;;;;;10337334;28;19975;-67
2023/09/05 12:07:36;;;;;;;13.65;4.00;;;;;;;;;;10337272;28;20532;-66
2023/09/05 12:12:35;;;;;;;10.05;3.72;;;;;;;;;;10337023;28;20072;-66
2023/09/05 12:17:33;;;;;;;11.63;4.03;;;;;;;;;;10335152;28;20067;-66
2023/09/05 12:22:32;;;;;;;7.40;3.45;;;;;;;;;;10336531;28;20064;-65
2023/09/05 12:27:31;;;;;;;11.90;3.50;;;;;;;;;;10334747;28;20075;-67
2023/09/05 12:32:29;;;;;;;10.10;3.35;;;;;;;;;;10336814;28;20082;-66
2023/09/05 12:37:27;;;;;;;11.23;3.53;;;;;;;;;;10336593;28;20075;-67
2023/09/05 12:42:28;;;;;;;5.03;3.17;;;;;;;;;;10335147;28;20065;-66
2023/09/05 12:47:26;;;;;;;11.25;4.13;;;;;;;;;;10336370;28;20106;-66
2023/09/05 12:52:29;;;;;;;5.90;3.47;;;;;;;;;;10336329;28;20078;-64
2023/09/05 12:57:29;;;;;;;9.90;4.10;;;;;;;;;;10335282;28;20080;-66
2023/09/05 13:02:27;;;;;;;14.98;3.45;;;;;;;;;;10334231;28;20087;-66
2023/09/05 13:07:25;;;;;;;4.50;3.45;;;;;;;;;;10333572;28;20076;-65
2023/09/05 13:12:24;;;;;;;5.95;3.95;;;;;;;;;;10333511;28;20079;-65
2023/09/05 13:17:23;;;;;;;6.38;3.25;;;;;;;;;;10334988;28;20489;-66
2023/09/05 13:22:22;;;;;;;8.05;3.65;;;;;;;;;;10333781;28;20075;-66
2023/09/05 13:27:20;;;;;;;5.00;3.42;;;;;;;;;;10335466;28;20069;-66
2023/09/05 13:32:18;;;;;;;5.20;3.60;;;;;;;;;;10332175;28;20068;-66
2023/09/05 13:37:18;;;;;;;5.13;3.42;;;;;;;;;;10333040;28;20071;-65
2023/09/05 13:42:16;;;;;;;6.57;3.70;;;;;;;;;;10332387;28;20098;-66
2023/09/05 13:47:14;;;;;;;9.25;4.35;;;;;;;;;;10334865;28;20076;-64
2023/09/05 13:52:15;;;;;;;8.25;4.05;;;;;;;;;;10332302;28;20160;-67
2023/09/05 13:57:15;;;;;;;8.23;4.85;;;;;;;;;;10332402;28;20072;-68
2023/09/05 14:02:14;;;;;;;14.68;4.40;;;;;;;;;;10332380;28;20067;-67
2023/09/05 14:07:12;;;;;;;4.93;2.60;;;;;;;;;;10333870;28;20091;-67
2023/09/05 14:12:17;;;;;;;8.35;3.70;;;;;;;;;;10332063;28;20512;-67
2023/09/05 14:17:17;;;;;;;5.60;4.43;;;;;;;;;;10329877;28;20079;-67
2023/09/05 14:22:15;;;;;;;12.32;5.00;;;;;;;;;;10331248;28;20074;-67
2023/09/05 14:27:14;;;;;;;8.05;3.42;;;;;;;;;;10333586;28;20060;-67
2023/09/05 14:32:13;;;;;;;12.65;4.28;;;;;;;;;;10332545;28;20075;-66
2023/09/05 14:37:12;;;;;;;4.85;3.75;;;;;;;;;;10332787;28;20064;-67
2023/09/05 14:42:11;;;;;;;9.20;3.38;;;;;;;;;;10330513;28;20491;-68
2023/09/05 14:47:09;;;;;;;6.97;4.03;;;;;;;;;;10331401;28;20067;-63
2023/09/05 14:52:10;;;;;;;4.20;3.78;;;;;;;;;;10330899;28;20105;-66
2023/09/05 14:57:10;;;;;;;5.97;3.33;;;;;;;;;;10331459;28;20098;-67
2023/09/05 15:02:08;;;;;;;5.70;2.90;;;;;;;;;;10330546;28;20468;-66
2023/09/05 15:07:10;;;;;;;7.97;3.38;;;;;;;;;;10330801;28;20533;-65
2023/09/05 15:12:10;;;;;;;7.28;3.40;;;;;;;;;;10329620;28;20524;-67
2023/09/05 15:17:09;;;;;;;7.43;3.10;;;;;;;;;;10323658;28;20521;-65
2023/09/05 15:22:07;;;;;;;10.73;4.68;;;;;;;;;;10330773;28;20517;-65
2023/09/05 15:27:06;;;;;;;8.00;4.32;;;;;;;;;;10328972;28;20068;-65
2023/09/05 15:32:06;;;;;;;9.15;4.45;;;;;;;;;;10334425;28;20072;-65
2023/09/05 15:37:05;;;;;;;4.57;3.38;;;;;;;;;;10336546;28;20094;-65
2023/09/05 15:42:03;;;;;;;14.20;3.65;;;;;;;;;;10334846;28;20076;-65
2023/09/05 15:47:01;;;;;;;9.40;3.63;;;;;;;;;;10338283;28;20075;-64
2023/09/05 15:52:03;;;;;;;10.32;3.58;;;;;;;;;;10339547;28;20056;-65
2023/09/05 15:57:01;;;;;;;9.07;3.67;;;;;;;;;;10337080;28;20080;-65
2023/09/05 16:01:59;;;;;;;6.47;4.00;;;;;;;;;;10336300;28;20072;-65
2023/09/05 16:06:58;;;;;;;9.20;3.78;;;;;;;;;;10337374;28;20079;-64
2023/09/05 16:11:59;;;;;;;8.25;4.43;;;;;;;;;;10337467;28;20076;-65
2023/09/05 16:16:57;;;;;;;12.10;3.58;;;;;;;;;;10337432;28;20596;-64
2023/09/05 16:21:57;;;;;;;3.97;3.40;;;;;;;;;;10337593;28;20111;-65
2023/09/05 16:26:56;;;;;;;7.50;3.67;;;;;;;;;;10338150;28;20105;-66
2023/09/05 16:31:56;;;;;;;4.38;3.60;;;;;;;;;;10336271;28;20070;-65
2023/09/05 16:36:54;;;;;;;9.88;4.45;;;;;;;;;;10337357;28;20074;-64
2023/09/05 16:41:52;;;;;;;6.25;4.38;;;;;;;;;;10336759;28;20064;-64
2023/09/05 16:46:50;;;;;;;9.43;4.75;;;;;;;;;;10334441;28;20079;-65
2023/09/05 16:51:50;;;;;;;12.63;3.90;;;;;;;;;;10338058;28;20060;-65
2023/09/05 16:56:49;;;;;;;7.95;5.30;;;;;;;;;;10335054;28;20067;-65
2023/09/05 17:01:48;;;;;;;13.45;7.63;;;;;;;;;;10335669;28;20076;-65
2023/09/05 17:06:46;;;;;;;10.27;5.75;;;;;;;;;;10335620;28;20067;-65
2023/09/05 17:11:47;;;;;;;13.35;8.95;;;;;;;;;;10336976;28;20067;-65
2023/09/05 17:16:45;;;;;;;10.52;7.20;;;;;;;;;;10335782;28;20075;-65
2023/09/05 17:21:44;;;;;;;12.98;5.10;;;;;;;;;;10335196;28;20524;-65
2023/09/05 17:26:42;;;;;;;8.25;6.53;;;;;;;;;;10335236;28;20063;-66
2023/09/05 17:31:43;;;;;;;7.22;5.95;;;;;;;;;;10336401;28;20116;-65
2023/09/05 17:36:41;;;;;;;11.00;3.53;;;;;;;;;;10333093;28;21041;-66
2023/09/05 17:41:39;;;;;;;11.02;5.93;;;;;;;;;;10334526;28;20086;-65
2023/09/05 17:46:38;;;;;;;8.20;6.72;;;;;;;;;;10333709;28;20067;-66
2023/09/05 17:51:37;;;;;;;10.10;7.25;;;;;;;;;;10329475;28;20098;-66
2023/09/05 17:56:36;;;;;;;10.18;4.07;;;;;;;;;;10329947;28;20068;-65
2023/09/05 18:01:34;;;;;;;8.95;5.53;;;;;;;;;;10331230;28;20068;-65
2023/09/05 18:06:33;;;;;;;7.57;4.20;;;;;;;;;;10332751;28;20322;-65
2023/09/05 18:11:33;;;;;;;5.93;4.30;;;;;;;;;;10328545;28;20072;-64
2023/09/05 18:16:31;;;;;;;4.72;2.80;;;;;;;;;;10330895;28;20450;-64
2023/09/05 18:21:35;;;;;;;3.42;2.90;;;;;;;;;;10333671;28;20067;-64
2023/09/05 18:26:34;;;;;;;6.38;3.30;;;;;;;;;;10327387;28;20072;-65
2023/09/05 18:31:33;;;;;;;10.13;3.42;;;;;;;;;;10330119;28;20079;-65
2023/09/05 18:36:31;;;;;;;3.67;2.90;;;;;;;;;;10330793;28;20082;-65
2023/09/05 18:41:29;;;;;;;7.60;3.95;;;;;;;;;;10330456;28;20094;-65
2023/09/05 18:46:31;;;;;;;4.65;3.10;;;;;;;;;;10331310;28;20083;-65
2023/09/05 18:51:30;;;;;;;6.65;2.90;;;;;;;;;;10332840;28;20060;-64
2023/09/05 18:56:33;;;;;;;6.28;3.83;;;;;;;;;;10333896;28;20174;-65
2023/09/05 19:01:33;;;;;;;5.85;3.67;;;;;;;;;;10330949;28;20508;-64
2023/09/05 19:06:32;;;;;;;4.60;2.75;;;;;;;;;;10330203;28;20170;-65
2023/09/05 19:11:30;;;;;;;5.28;4.32;;;;;;;;;;10332462;28;20540;-65
2023/09/05 19:16:29;;;;;;;3.47;2.85;;;;;;;;;;10330241;28;20069;-65
2023/09/05 19:21:29;;;;;;;5.13;3.17;;;;;;;;;;10329404;28;20080;-65
2023/09/05 19:26:27;;;;;;;7.97;3.60;;;;;;;;;;10330855;28;20486;-65
2023/09/05 19:31:28;;;;;;;3.65;2.85;;;;;;;;;;10330785;28;20082;-66
2023/09/05 19:36:26;;;;;;;4.75;3.20;;;;;;;;;;10330113;28;20056;-64
2023/09/05 19:41:26;;;;;;;10.07;4.18;;;;;;;;;;10332670;28;20068;-65
2023/09/05 19:46:25;;;;;;;11.85;4.00;;;;;;;;;;10328177;28;20083;-64
2023/09/05 19:51:24;;;;;;;5.45;3.47;;;;;;;;;;10329154;28;20072;-65
2023/09/05 19:56:22;;;;;;;4.43;2.83;;;;;;;;;;10328765;28;20295;-64
2023/09/05 20:01:24;;;;;;;4.03;2.80;;;;;;;;;;10330519;28;20071;-65
2023/09/05 20:06:22;;;;;;;4.88;2.80;;;;;;;;;;10328287;28;20569;-64
2023/09/05 20:11:20;;;;;;;5.40;3.58;;;;;;;;;;10326554;28;20072;-65
2023/09/05 20:16:19;;;;;;;4.00;2.75;;;;;;;;;;10330792;28;20129;-65
2023/09/05 20:21:18;;;;;;;8.55;2.75;;;;;;;;;;10333735;28;20079;-65
2023/09/05 20:26:17;;;;;;;3.65;2.40;;;;;;;;;;10335841;28;20064;-65
2023/09/05 20:31:16;;;;;;;3.03;2.72;;;;;;;;;;10338014;28;20063;-64
2023/09/05 20:36:16;;;;;;;5.05;2.65;;;;;;;;;;10337621;28;20072;-64
2023/09/05 20:41:23;;;;;;;4.30;2.73;;;;;;;;;;10318040;28;20525;-64
2023/09/05 20:46:22;;;;;;;6.65;2.80;;;;;;;;;;10334170;28;20539;-64
2023/09/05 20:51:20;;;;;;;5.10;3.08;;;;;;;;;;10334894;28;20056;-64
2023/09/05 20:56:20;;;;;;;3.35;2.83;;;;;;;;;;10335346;28;20072;-64
2023/09/05 21:01:20;;;;;;;3.90;2.83;;;;;;;;;;10335780;28;20068;-64
2023/09/05 21:06:18;;;;;;;3.15;2.85;;;;;;;;;;10336181;28;20460;-64
2023/09/05 21:11:17;;;;;;;5.50;3.08;;;;;;;;;;10336854;28;20075;-65
2023/09/05 21:16:16;;;;;;;4.93;2.35;;;;;;;;;;10301470;28;20527;-64
2023/09/05 21:21:14;;;;;;;3.75;3.00;;;;;;;;;;10335563;28;20078;-64
2023/09/05 21:26:13;;;;;;;2.72;2.40;;;;;;;;;;10333800;28;20071;-65
2023/09/05 21:31:12;;;;;;;7.88;2.50;;;;;;;;;;10334933;28;20064;-65
2023/09/05 21:36:12;;;;;;;7.75;2.53;;;;;;;;;;10334321;28;20071;-65
2023/09/05 21:41:10;;;;;;;5.63;3.00;;;;;;;;;;10323952;28;20051;-65
2023/09/05 21:46:11;;;;;;;3.47;2.90;;;;;;;;;;10333007;28;20079;-65
2023/09/05 21:51:12;;;;;;;2.58;2.20;;;;;;;;;;10333209;28;20079;-65
2023/09/05 21:56:10;;;;;;;6.60;2.58;;;;;;;;;;10332040;28;20079;-65
2023/09/05 22:01:08;;;;;;;4.88;2.80;;;;;;;;;;10333029;28;20079;-65
2023/09/05 22:06:06;;;;;;;4.35;2.65;;;;;;;;;;10328861;28;20073;-66
2023/09/05 22:11:06;;;;;;;3.35;3.05;;;;;;;;;;10330471;28;20075;-65
2023/09/05 22:16:05;;;;;;;4.53;2.72;;;;;;;;;;10333030;28;20064;-65
2023/09/05 22:21:04;;;;;;;3.88;3.22;;;;;;;;;;10332066;28;20064;-65
2023/09/05 22:26:02;;;;;;;7.28;2.72;;;;;;;;;;10334549;28;20064;-65
2023/09/05 22:31:03;;;;;;;3.17;2.60;;;;;;;;;;10332198;28;20072;-65
2023/09/05 22:36:01;;;;;;;4.13;2.40;;;;;;;;;;10331723;28;20072;-65
2023/09/05 22:40:59;;;;;;;7.43;2.47;;;;;;;;;;10330589;28;20592;-64
2023/09/05 22:45:58;;;;;;;5.72;2.10;;;;;;;;;;10331645;28;20083;-65
2023/09/05 22:50:57;;;;;;;8.15;2.75;;;;;;;;;;10331738;28;20076;-64
2023/09/05 22:56:08;;;;;;;4.03;2.70;;;;;;;;;;10330726;28;20071;-65
2023/09/05 23:01:07;;;;;;;4.13;2.50;;;;;;;;;;10328467;28;20075;-65
2023/09/05 23:06:09;;;;;;;3.78;2.83;;;;;;;;;;10329137;28;20083;-65
2023/09/05 23:11:08;;;;;;;3.67;2.80;;;;;;;;;;10329253;28;20314;-65
2023/09/05 23:16:06;;;;;;;4.68;2.50;;;;;;;;;;10326249;28;20498;-65
2023/09/05 23:21:05;;;;;;;4.63;2.92;;;;;;;;;;10327092;28;20056;-64
2023/09/05 23:26:05;;;;;;;4.25;2.85;;;;;;;;;;10332521;28;20082;-64
2023/09/05 23:31:05;;;;;;;3.42;2.42;;;;;;;;;;10331294;28;20072;-65
2023/09/05 23:36:04;;;;;;;2.53;2.33;;;;;;;;;;10328142;28;20106;-65
2023/09/05 23:41:04;;;;;;;2.95;2.70;;;;;;;;;;10330181;28;20072;-65
2023/09/05 23:46:04;;;;;;;2.72;2.42;;;;;;;;;;10331297;28;20462;-65
2023/09/05 23:51:04;;;;;;;4.50;2.42;;;;;;;;;;10334386;28;20528;-65
2023/09/05 23:56:03;;;;;;;4.03;2.80;;;;;;;;;;10337487;28;20072;-66
